Time;durP1;ratioP1;P1;durP2;ratioP2;P2;SDS_P1;SDS_P2;PMS_P1;PMS_P2;Temp;Humidity;BMP_temperature;BMP_pressure;BME280_temperature;BME280_humidity;BME280_pressure;Samples;Min_cycle;Max_cycle;Signal;HPM_P1;HPM_P2
2023/09/08 00:02:11;;;;;;;10.98;10.68;;;17.20;99.90;;;;;;6205292;23;20194;-81
2023/09/08 00:04:39;;;;;;;10.95;10.65;;;17.10;99.90;;;;;;6204821;23;20246;-80
2023/09/08 00:07:12;;;;;;;10.88;10.57;;;17.10;99.90;;;;;;6210879;23;20199;-80
2023/09/08 00:09:39;;;;;;;10.70;10.40;;;17.00;99.90;;;;;;6220708;23;20207;-81
2023/09/08 00:12:08;;;;;;;10.70;10.40;;;16.90;99.90;;;;;;6215787;23;20198;-81
2023/09/08 00:14:47;;;;;;;10.52;10.23;;;16.90;99.90;;;;;;6205165;23;20259;-82
2023/09/08 00:17:15;;;;;;;10.50;10.20;;;16.90;99.90;;;;;;6204144;23;20207;-81
2023/09/08 00:19:55;;;;;;;10.50;10.20;;;16.80;99.90;;;;;;6203578;23;20572;-81
2023/09/08 00:22:25;;;;;;;10.70;10.40;;;16.80;99.90;;;;;;6203977;23;20222;-82
2023/09/08 00:24:52;;;;;;;11.00;10.70;;;16.80;99.90;;;;;;6203842;23;20238;-81
2023/09/08 00:27:31;;;;;;;10.57;10.27;;;16.70;99.90;;;;;;6204193;23;20223;-82
2023/09/08 00:30:01;;;;;;;10.60;10.30;;;16.70;99.90;;;;;;6203918;23;20203;-81
2023/09/08 00:32:30;;;;;;;10.50;10.20;;;16.70;99.90;;;;;;6203172;23;20195;-81
2023/09/08 00:35:08;;;;;;;10.68;10.38;;;16.60;99.90;;;;;;6202327;23;20209;-81
2023/09/08 00:40:34;;;;;;;10.57;10.27;;;16.50;99.90;;;;;;6202984;23;20251;-83
2023/09/08 00:43:03;;;;;;;10.75;10.45;;;16.50;99.90;;;;;;6204267;23;20188;-83
2023/09/08 00:45:32;;;;;;;10.63;10.32;;;16.50;99.90;;;;;;6204055;23;20215;-83
2023/09/08 00:48:12;;;;;;;10.40;10.10;;;16.40;99.90;;;;;;6204755;23;20192;-81
2023/09/08 00:50:39;;;;;;;10.60;10.30;;;16.40;99.90;;;;;;6203219;23;20203;-83
2023/09/08 00:53:12;;;;;;;10.90;10.60;;;16.40;99.90;;;;;;6202197;23;20192;-83
2023/09/08 00:55:41;;;;;;;10.70;10.40;;;16.30;99.90;;;;;;6203140;23;20199;-81
2023/09/08 00:58:09;;;;;;;10.65;10.35;;;16.30;99.90;;;;;;6203305;23;20235;-81
2023/09/08 01:00:37;;;;;;;10.57;10.27;;;16.20;99.90;;;;;;6203280;23;20211;-81
2023/09/08 01:03:17;;;;;;;10.70;10.40;;;16.20;99.90;;;;;;6204281;23;20244;-81
2023/09/08 01:05:46;;;;;;;10.82;10.52;;;16.20;99.90;;;;;;6204693;23;20285;-83
2023/09/08 01:08:18;;;;;;;10.80;10.50;;;16.10;99.90;;;;;;6203346;23;20226;-81
2023/09/08 01:10:46;;;;;;;10.75;10.45;;;16.00;99.90;;;;;;6203372;23;20212;-81
2023/09/08 01:13:14;;;;;;;10.50;10.20;;;16.00;99.90;;;;;;6202804;23;20230;-81
2023/09/08 01:15:53;;;;;;;10.57;10.27;;;15.90;99.90;;;;;;6202298;23;20223;-81
2023/09/08 01:18:21;;;;;;;10.45;10.15;;;15.90;99.90;;;;;;6203495;23;20286;-81
2023/09/08 01:21:12;;;;;;;10.48;10.18;;;15.80;99.90;;;;;;6203202;23;20199;-81
2023/09/08 01:23:58;;;;;;;10.60;10.30;;;15.80;99.90;;;;;;6204503;23;20259;-81
2023/09/08 01:26:33;;;;;;;10.30;10.00;;;15.80;99.90;;;;;;6204347;23;20195;-81
2023/09/08 01:29:03;;;;;;;10.60;10.30;;;15.70;99.90;;;;;;6203946;23;20219;-81
2023/09/08 01:35:13;;;;;;;10.32;10.02;;;15.70;99.90;;;;;;6168647;23;20208;-86
2023/09/08 01:37:44;;;;;;;10.45;10.15;;;15.60;99.90;;;;;;6168092;23;20208;-86
2023/09/08 01:45:43;;;;;;;10.43;10.13;;;15.60;99.90;;;;;;6176605;22;20212;-79
2023/09/08 01:48:10;;;;;;;10.43;10.13;;;15.50;99.90;;;;;;6256584;22;20213;-79
2023/09/08 01:50:37;;;;;;;10.70;10.40;;;15.50;99.90;;;;;;6256084;22;20300;-79
2023/09/08 01:53:04;;;;;;;10.80;10.50;;;15.40;99.90;;;;;;6256549;22;20237;-79
2023/09/08 01:55:31;;;;;;;10.65;10.35;;;15.40;99.90;;;;;;6256595;22;20260;-79
2023/09/08 01:57:59;;;;;;;10.43;10.13;;;15.40;99.90;;;;;;6226597;23;20222;-79
2023/09/08 02:00:26;;;;;;;10.35;10.05;;;15.30;99.90;;;;;;6225973;23;20218;-80
2023/09/08 02:02:53;;;;;;;10.75;10.45;;;15.20;99.90;;;;;;6226470;23;20214;-78
2023/09/08 02:05:20;;;;;;;10.50;10.20;;;15.20;99.90;;;;;;6227541;23;20215;-79
2023/09/08 02:07:47;;;;;;;10.43;10.13;;;15.20;99.90;;;;;;6227661;23;20222;-79
2023/09/08 02:10:14;;;;;;;10.48;10.18;;;15.20;99.90;;;;;;6229040;23;20233;-79
2023/09/08 02:12:42;;;;;;;10.60;10.30;;;15.20;99.90;;;;;;6229678;23;20230;-79
2023/09/08 02:15:17;;;;;;;10.60;10.30;;;15.10;99.90;;;;;;6229697;23;20210;-79
2023/09/08 02:17:44;;;;;;;10.43;10.13;;;15.10;99.90;;;;;;6227750;23;20206;-79
2023/09/08 02:20:12;;;;;;;10.60;10.30;;;15.00;99.90;;;;;;6227352;23;20209;-79
2023/09/08 02:22:40;;;;;;;10.70;10.40;;;15.00;99.90;;;;;;6227495;23;20194;-79
2023/09/08 02:25:09;;;;;;;10.60;10.30;;;15.00;99.90;;;;;;6227345;23;20199;-79
2023/09/08 02:27:36;;;;;;;10.70;10.40;;;14.90;99.90;;;;;;6227760;23;20199;-80
2023/09/08 02:30:03;;;;;;;10.60;10.30;;;14.90;99.90;;;;;;6227881;23;20249;-79
2023/09/08 02:32:31;;;;;;;10.50;10.20;;;14.90;99.90;;;;;;6227428;23;20219;-79
2023/09/08 02:34:59;;;;;;;10.35;10.05;;;14.90;99.90;;;;;;6229428;23;20289;-80
2023/09/08 02:37:25;;;;;;;10.35;10.05;;;14.80;99.90;;;;;;6230848;23;20219;-79
2023/09/08 02:39:52;;;;;;;10.30;10.00;;;14.80;99.90;;;;;;6230839;23;20206;-79
2023/09/08 02:42:20;;;;;;;10.40;10.10;;;14.80;99.90;;;;;;6229827;23;20186;-79
2023/09/08 02:44:47;;;;;;;10.40;10.10;;;14.70;99.90;;;;;;6228867;23;20218;-78
2023/09/08 02:47:14;;;;;;;10.80;10.50;;;14.60;99.90;;;;;;6227538;23;20233;-78
2023/09/08 02:49:43;;;;;;;10.63;10.32;;;14.60;99.90;;;;;;6227283;23;20199;-79
2023/09/08 02:52:10;;;;;;;10.60;10.30;;;14.60;99.90;;;;;;6227573;23;20242;-79
2023/09/08 02:54:39;;;;;;;10.50;10.20;;;14.60;99.90;;;;;;6227313;23;20230;-79
2023/09/08 02:57:07;;;;;;;10.10;9.80;;;14.50;99.90;;;;;;6227484;23;20223;-78
2023/09/08 02:59:35;;;;;;;10.20;9.90;;;14.60;99.90;;;;;;6227451;23;20283;-78
2023/09/08 03:02:02;;;;;;;10.30;10.00;;;14.50;99.90;;;;;;6227377;23;20207;-79
2023/09/08 03:04:29;;;;;;;10.45;10.15;;;14.50;99.90;;;;;;6227782;23;20211;-78
2023/09/08 03:06:59;;;;;;;10.60;10.30;;;14.50;99.90;;;;;;6228303;23;20284;-78
2023/09/08 03:09:26;;;;;;;10.63;10.32;;;14.50;99.90;;;;;;6228129;23;20191;-79
2023/09/08 03:11:55;;;;;;;10.18;9.88;;;14.40;99.90;;;;;;6227309;23;20250;-79
2023/09/08 03:14:23;;;;;;;10.18;9.88;;;14.40;99.90;;;;;;6227091;23;20218;-78
2023/09/08 03:16:53;;;;;;;9.90;9.60;;;14.40;99.90;;;;;;6227494;23;20287;-78
2023/09/08 03:19:20;;;;;;;9.68;9.38;;;14.40;99.90;;;;;;6227950;23;20210;-79
2023/09/08 03:21:47;;;;;;;9.70;9.40;;;14.40;99.90;;;;;;6227214;23;20210;-78
2023/09/08 03:24:16;;;;;;;9.77;9.48;;;14.30;99.90;;;;;;6228324;23;20209;-78
2023/09/08 03:26:43;;;;;;;9.50;9.20;;;14.30;99.90;;;;;;6227862;23;20304;-79
2023/09/08 03:29:12;;;;;;;9.77;9.48;;;14.20;99.90;;;;;;6228280;23;20190;-79
2023/09/08 03:31:41;;;;;;;9.60;9.30;;;14.20;99.90;;;;;;6227841;23;20218;-79
2023/09/08 03:34:08;;;;;;;9.70;9.40;;;14.20;99.90;;;;;;6227983;23;20238;-78
2023/09/08 03:36:38;;;;;;;9.80;9.50;;;14.10;99.90;;;;;;6227893;23;20222;-79
2023/09/08 03:39:05;;;;;;;10.00;9.70;;;14.10;99.90;;;;;;6227998;23;20271;-79
2023/09/08 03:41:34;;;;;;;10.00;9.70;;;14.10;99.90;;;;;;6227889;23;20187;-79
2023/09/08 03:44:01;;;;;;;9.97;9.67;;;14.00;99.90;;;;;;6227815;23;20236;-78
2023/09/08 03:46:31;;;;;;;10.10;9.80;;;13.90;99.90;;;;;;6227688;23;20234;-78
2023/09/08 03:49:00;;;;;;;10.10;9.80;;;13.90;99.90;;;;;;6228520;23;20214;-78
2023/09/08 03:51:28;;;;;;;10.10;9.80;;;13.80;99.90;;;;;;6227333;23;20217;-79
2023/09/08 03:53:56;;;;;;;10.20;9.90;;;13.70;99.90;;;;;;6228616;23;20289;-79
2023/09/08 03:56:23;;;;;;;10.33;10.03;;;13.70;99.90;;;;;;6228441;23;20210;-78
2023/09/08 03:58:52;;;;;;;10.33;10.03;;;13.60;99.90;;;;;;6228442;23;20206;-79
2023/09/08 04:01:19;;;;;;;10.40;10.10;;;13.60;99.90;;;;;;6227501;23;20214;-80
2023/09/08 04:06:28;;;;;;;9.90;9.60;;;13.50;99.90;;;;;;6224502;23;20301;-79
2023/09/08 04:08:55;;;;;;;10.00;9.70;;;13.50;99.90;;;;;;6228749;23;20206;-79
2023/09/08 04:11:24;;;;;;;10.30;10.00;;;13.50;99.90;;;;;;6227592;23;20233;-77
2023/09/08 04:13:54;;;;;;;9.90;9.60;;;13.50;99.90;;;;;;6227110;23;20290;-78
2023/09/08 04:16:26;;;;;;;9.87;9.57;;;13.50;99.90;;;;;;6227473;23;20203;-81
2023/09/08 04:18:55;;;;;;;9.63;9.33;;;13.50;99.90;;;;;;6227134;23;20191;-78
2023/09/08 04:21:22;;;;;;;10.17;9.87;;;13.50;99.90;;;;;;6225580;23;20217;-79
2023/09/08 04:23:49;;;;;;;10.70;10.40;;;13.50;99.90;;;;;;6226383;23;20213;-79
2023/09/08 04:26:16;;;;;;;10.63;10.33;;;13.50;99.90;;;;;;6226765;23;20203;-78
2023/09/08 04:28:44;;;;;;;10.37;10.07;;;13.50;99.90;;;;;;6226020;23;20277;-79
2023/09/08 04:31:16;;;;;;;10.40;10.10;;;13.40;99.90;;;;;;6226367;23;20214;-79
2023/09/08 04:33:43;;;;;;;10.80;10.50;;;13.40;99.90;;;;;;6225840;23;20186;-77
2023/09/08 04:36:13;;;;;;;10.50;10.20;;;13.40;99.90;;;;;;6226494;23;20688;-79
2023/09/08 04:38:41;;;;;;;10.60;10.30;;;13.40;99.90;;;;;;6225951;23;20191;-78
2023/09/08 04:41:11;;;;;;;10.90;10.60;;;13.40;99.90;;;;;;6227242;23;20250;-80
2023/09/08 04:43:40;;;;;;;10.80;10.50;;;13.40;99.90;;;;;;6228335;23;20227;-80
2023/09/08 04:46:08;;;;;;;10.57;10.27;;;13.50;99.90;;;;;;6227483;23;20296;-80
2023/09/08 04:48:38;;;;;;;10.40;10.10;;;13.50;99.90;;;;;;6229586;23;20237;-80
2023/09/08 04:51:07;;;;;;;10.57;10.27;;;13.50;99.90;;;;;;6229405;23;20211;-81
2023/09/08 04:53:36;;;;;;;10.20;9.90;;;13.50;99.90;;;;;;6230449;23;20203;-80
2023/09/08 04:56:04;;;;;;;10.37;10.07;;;13.60;99.90;;;;;;6230143;23;20234;-80
2023/09/08 04:58:31;;;;;;;10.25;9.95;;;13.50;99.90;;;;;;6230931;23;20213;-79
2023/09/08 05:00:58;;;;;;;10.43;10.13;;;13.50;99.90;;;;;;6229211;23;20263;-79
2023/09/08 05:03:26;;;;;;;10.40;10.10;;;13.50;99.90;;;;;;6228815;23;20274;-79
2023/09/08 05:05:56;;;;;;;10.40;10.10;;;13.50;99.90;;;;;;6229052;23;20233;-80
2023/09/08 05:08:27;;;;;;;10.50;10.20;;;13.50;99.90;;;;;;6229340;23;20255;-80
2023/09/08 05:10:55;;;;;;;10.33;10.03;;;13.40;99.90;;;;;;6229021;23;20207;-79
2023/09/08 05:13:26;;;;;;;10.50;10.20;;;13.40;99.90;;;;;;6227974;23;20282;-80
2023/09/08 05:15:59;;;;;;;10.50;10.20;;;13.40;99.90;;;;;;6228065;23;20210;-80
2023/09/08 05:18:27;;;;;;;10.50;10.20;;;13.40;99.90;;;;;;6226759;23;20209;-76
2023/09/08 05:20:55;;;;;;;10.50;10.20;;;13.40;99.90;;;;;;6223195;23;20241;-76
2023/09/08 05:23:22;;;;;;;10.23;9.93;;;13.40;99.90;;;;;;6223609;23;20211;-76
2023/09/08 05:25:49;;;;;;;10.23;9.93;;;13.40;99.90;;;;;;6225883;23;20217;-79
2023/09/08 05:28:16;;;;;;;10.30;10.00;;;13.50;99.90;;;;;;6228334;23;20206;-79
2023/09/08 05:30:43;;;;;;;10.40;10.10;;;13.50;99.90;;;;;;6228621;23;20246;-80
2023/09/08 05:33:10;;;;;;;10.20;9.90;;;13.50;99.90;;;;;;6231033;23;20253;-80
2023/09/08 05:35:37;;;;;;;9.97;9.67;;;13.50;99.90;;;;;;6230411;23;20266;-80
2023/09/08 05:38:06;;;;;;;10.00;9.70;;;13.50;99.90;;;;;;6230553;23;20289;-80
2023/09/08 05:40:33;;;;;;;10.00;9.70;;;13.70;99.90;;;;;;6230468;23;20226;-82
2023/09/08 05:43:00;;;;;;;9.90;9.60;;;13.70;99.90;;;;;;6231429;23;20285;-82
2023/09/08 05:45:32;;;;;;;10.30;10.00;;;13.80;99.90;;;;;;6231845;23;20210;-83
2023/09/08 05:47:59;;;;;;;10.30;10.00;;;13.90;99.90;;;;;;6231626;23;20294;-82
2023/09/08 05:50:27;;;;;;;10.07;9.77;;;14.00;99.90;;;;;;6232073;23;20202;-82
2023/09/08 05:52:54;;;;;;;9.85;9.55;;;14.10;99.90;;;;;;6231384;23;20199;-81
2023/09/08 05:55:24;;;;;;;10.20;9.90;;;14.20;99.90;;;;;;6238040;23;20202;-84
2023/09/08 05:57:51;;;;;;;9.90;9.60;;;14.30;99.90;;;;;;6240632;23;20254;-83
2023/09/08 06:00:19;;;;;;;10.32;10.02;;;14.40;99.90;;;;;;6244026;23;20190;-82
2023/09/08 06:02:46;;;;;;;10.80;10.50;;;14.50;99.90;;;;;;6245863;23;20214;-81
2023/09/08 06:05:13;;;;;;;10.40;10.10;;;14.60;99.90;;;;;;6245580;23;20191;-81
2023/09/08 06:07:41;;;;;;;10.48;10.18;;;14.70;99.90;;;;;;6241743;23;20210;-81
2023/09/08 06:10:09;;;;;;;10.50;10.20;;;14.90;99.90;;;;;;6238078;23;20195;-81
2023/09/08 06:12:37;;;;;;;10.57;10.27;;;15.00;99.90;;;;;;6235574;23;20195;-82
2023/09/08 06:15:06;;;;;;;10.68;10.38;;;15.10;99.90;;;;;;6233964;23;20266;-82
2023/09/08 06:17:33;;;;;;;10.90;10.60;;;15.20;99.90;;;;;;6233060;23;20216;-81
2023/09/08 06:20:00;;;;;;;10.95;10.65;;;15.30;99.90;;;;;;6232763;23;20195;-82
2023/09/08 06:22:27;;;;;;;11.40;11.00;;;15.30;99.90;;;;;;6230268;23;20210;-82
2023/09/08 06:24:54;;;;;;;11.02;10.73;;;15.50;99.90;;;;;;6230242;23;20218;-82
2023/09/08 06:27:21;;;;;;;11.00;10.70;;;15.60;99.90;;;;;;6229681;23;20274;-82
2023/09/08 06:29:51;;;;;;;11.00;10.70;;;15.70;99.90;;;;;;6227490;23;20245;-80
2023/09/08 06:32:18;;;;;;;11.02;10.73;;;15.70;99.90;;;;;;6227802;23;20202;-82
2023/09/08 06:34:45;;;;;;;10.85;10.55;;;15.80;99.90;;;;;;6229661;23;20230;-82
2023/09/08 06:37:12;;;;;;;11.20;10.80;;;15.90;99.90;;;;;;6229367;23;20211;-82
2023/09/08 06:39:39;;;;;;;10.90;10.60;;;15.90;99.90;;;;;;6228174;23;20207;-83
2023/09/08 06:42:06;;;;;;;11.20;10.80;;;15.90;99.90;;;;;;6228659;23;20195;-81
2023/09/08 06:44:33;;;;;;;10.70;10.40;;;16.10;99.90;;;;;;6228677;23;20258;-82
2023/09/08 06:47:03;;;;;;;10.90;10.60;;;16.10;99.90;;;;;;6231313;23;20210;-81
2023/09/08 06:49:30;;;;;;;10.90;10.60;;;16.20;99.90;;;;;;6229846;23;20234;-81
2023/09/08 06:51:57;;;;;;;10.90;10.60;;;16.30;99.90;;;;;;6230479;23;20206;-81
2023/09/08 06:54:24;;;;;;;10.65;10.35;;;16.40;99.90;;;;;;6231745;23;20206;-81
2023/09/08 06:56:51;;;;;;;10.75;10.45;;;16.50;99.90;;;;;;6230337;23;20214;-80
2023/09/08 06:59:18;;;;;;;10.65;10.35;;;16.60;99.90;;;;;;6229943;23;20201;-81
2023/09/08 07:01:45;;;;;;;10.65;10.35;;;16.70;99.90;;;;;;6231008;23;20242;-80
2023/09/08 07:04:14;;;;;;;10.70;10.40;;;16.80;99.90;;;;;;6230673;23;20232;-80
2023/09/08 07:06:43;;;;;;;10.60;10.30;;;16.90;99.90;;;;;;6230801;23;20199;-81
2023/09/08 07:09:10;;;;;;;10.55;10.25;;;17.10;99.90;;;;;;6230423;23;20206;-82
2023/09/08 07:11:37;;;;;;;10.85;10.55;;;17.10;99.90;;;;;;6231166;23;20202;-81
2023/09/08 07:14:05;;;;;;;10.77;10.48;;;17.30;99.90;;;;;;6231160;23;20211;-80
2023/09/08 07:16:32;;;;;;;10.90;10.60;;;17.40;99.90;;;;;;6229914;23;20209;-80
2023/09/08 07:19:00;;;;;;;10.80;10.50;;;17.50;99.90;;;;;;6229852;23;20285;-82
2023/09/08 07:21:29;;;;;;;10.77;10.48;;;17.50;99.90;;;;;;6230987;23;20218;-80
2023/09/08 07:23:56;;;;;;;10.82;10.52;;;17.50;99.90;;;;;;6231956;23;20250;-80
2023/09/08 07:26:23;;;;;;;11.32;10.93;;;17.60;99.90;;;;;;6231450;23;20210;-80
2023/09/08 07:28:50;;;;;;;11.35;10.95;;;17.80;99.90;;;;;;6232322;23;20194;-80
2023/09/08 07:31:17;;;;;;;10.93;10.63;;;18.00;99.90;;;;;;6232058;23;20206;-81
2023/09/08 07:33:47;;;;;;;11.43;11.02;;;18.20;99.90;;;;;;6232650;23;20203;-81
2023/09/08 07:36:16;;;;;;;10.80;10.50;;;18.30;99.90;;;;;;6233271;23;20304;-83
2023/09/08 07:38:44;;;;;;;10.90;10.60;;;18.50;99.90;;;;;;6229517;23;20233;-80
2023/09/08 07:41:12;;;;;;;10.80;10.50;;;18.60;99.90;;;;;;6231758;23;20199;-81
2023/09/08 07:43:40;;;;;;;10.40;10.10;;;18.80;99.90;;;;;;6234828;23;20207;-81
2023/09/08 07:46:07;;;;;;;10.60;10.30;;;19.00;99.90;;;;;;6234201;23;20217;-81
2023/09/08 07:48:36;;;;;;;11.48;11.07;;;19.10;99.90;;;;;;6219145;23;20219;-82
2023/09/08 07:51:16;;;;;;;11.18;10.88;;;19.30;99.90;;;;;;6204287;23;20206;-85
2023/09/08 07:53:46;;;;;;;11.30;11.00;;;19.50;99.90;;;;;;6204229;23;20196;-86
2023/09/08 07:56:22;;;;;;;11.02;10.73;;;19.70;99.90;;;;;;6204246;23;20643;-85
2023/09/08 08:04:36;;;;;;;10.75;10.45;;;20.10;99.90;;;;;;6205111;23;20191;-91
2023/09/08 08:07:04;;;;;;;10.82;10.52;;;20.20;99.90;;;;;;6205558;23;20213;-90
2023/09/08 08:12:20;;;;;;;10.80;10.50;;;20.30;99.90;;;;;;6209603;22;20214;-89
2023/09/08 08:14:59;;;;;;;10.80;10.50;;;20.60;99.90;;;;;;6204555;23;20202;-89
2023/09/08 08:17:29;;;;;;;10.65;10.35;;;20.70;99.90;;;;;;6204049;23;20199;-88
2023/09/08 08:54:43;;;;;;;10.82;10.52;;;23.50;99.90;;;;;;6211103;22;20211;-88
2023/09/08 08:57:20;;;;;;;10.65;10.35;;;23.70;99.90;;;;;;6218520;23;20175;-86
2023/09/08 08:59:49;;;;;;;10.95;10.65;;;24.00;99.90;;;;;;6191070;23;20176;-84
2023/09/08 09:02:19;;;;;;;10.90;10.60;;;24.20;99.90;;;;;;6190996;23;20192;-86
2023/09/08 09:07:37;;;;;;;10.30;10.00;;;24.80;99.90;;;;;;6192898;23;20227;-87
2023/09/08 09:12:51;;;;;;;10.63;10.32;;;25.30;99.90;;;;;;6172956;23;20200;-88
2023/09/08 09:15:32;;;;;;;10.70;10.40;;;25.50;99.90;;;;;;6173330;23;20231;-88
2023/09/08 09:18:09;;;;;;;10.75;10.45;;;25.60;99.90;;;;;;6172965;23;20203;-88
2023/09/08 09:20:37;;;;;;;10.68;10.38;;;26.00;99.90;;;;;;6173552;23;20196;-88
2023/09/08 09:28:53;;;;;;;11.55;11.15;;;26.70;99.90;;;;;;6174253;23;20255;-90
2023/09/08 09:31:36;;;;;;;11.00;10.70;;;26.90;99.90;;;;;;6173226;23;20196;-88
2023/09/08 09:34:05;;;;;;;11.20;10.90;;;26.70;99.90;;;;;;6172958;23;20255;-88
2023/09/08 09:39:15;;;;;;;10.93;10.63;;;26.90;99.90;;;;;;6171433;23;20196;-86
2023/09/08 09:41:54;;;;;;;10.80;10.50;;;27.10;99.90;;;;;;6174819;23;20248;-89
2023/09/08 09:44:22;;;;;;;11.20;10.90;;;27.20;99.90;;;;;;6174238;23;20211;-87
2023/09/08 09:46:53;;;;;;;10.70;10.40;;;27.40;99.90;;;;;;6173790;23;20248;-87
2023/09/08 09:49:26;;;;;;;10.60;10.30;;;27.40;99.90;;;;;;6172556;23;20206;-88
2023/09/08 11:53:46;;;;;;;10.70;10.40;;;32.80;99.90;;;;;;6176559;23;20208;-87
2023/09/08 12:11:28;;;;;;;10.50;10.20;;;33.50;99.90;;;;;;6205791;22;20209;-88
2023/09/08 12:14:30;;;;;;;10.43;10.13;;;33.40;99.90;;;;;;6204510;23;20250;-90
2023/09/08 12:21:04;;;;;;;;;;;;;;;;;;;;;
2023/09/08 12:41:14;;;;;;;11.10;10.80;;;33.80;99.90;;;;;;5956958;24;20201;-90
2023/09/08 12:43:52;;;;;;;11.02;10.73;;;33.90;99.90;;;;;;5955800;23;20203;-88
2023/09/08 12:55:57;;;;;;;;;;;;;;;;;;;;;
2023/09/08 12:58:34;;;;;;;10.93;10.63;;;34.70;99.90;;;;;;6171212;23;20211;-87
2023/09/08 13:01:39;;;;;;;10.90;10.60;;;34.90;99.90;;;;;;6173545;23;20206;-84
2023/09/08 13:07:02;;;;;;;10.82;10.52;;;33.40;99.90;;;;;;6169006;23;20714;-84
2023/09/08 13:09:31;;;;;;;11.32;11.02;;;33.40;99.90;;;;;;6171030;23;20200;-86
2023/09/08 13:12:00;;;;;;;11.02;10.73;;;33.60;99.90;;;;;;6170538;23;20196;-86
2023/09/08 13:18:35;;;;;;;11.10;10.80;;;34.10;99.90;;;;;;6172388;23;20255;-86
2023/09/08 13:24:27;;;;;;;11.15;10.85;;;34.80;99.90;;;;;;6162813;23;20200;-86
2023/09/08 13:29:55;;;;;;;11.10;10.80;;;34.70;99.90;;;;;;6169843;23;20219;-85
2023/09/08 13:35:29;;;;;;;10.95;10.65;;;34.80;99.90;;;;;;6170203;23;20204;-86
2023/09/08 13:51:31;;;;;;;10.38;10.07;;;34.10;99.90;;;;;;6123627;22;20243;-80
2023/09/08 13:53:58;;;;;;;10.10;9.80;;;34.10;99.90;;;;;;6208301;23;20211;-79
2023/09/08 13:56:26;;;;;;;11.02;10.73;;;34.30;99.90;;;;;;6205230;23;20202;-79
2023/09/08 13:58:53;;;;;;;10.80;10.50;;;34.80;99.90;;;;;;6204032;23;20679;-79
2023/09/08 14:01:20;;;;;;;10.70;10.40;;;35.20;99.90;;;;;;6202885;23;20196;-80
2023/09/08 14:03:49;;;;;;;10.85;10.55;;;35.30;99.90;;;;;;6200946;23;20191;-79
2023/09/08 14:06:16;;;;;;;10.60;10.30;;;35.30;99.90;;;;;;6202594;23;20200;-80
2023/09/08 14:08:44;;;;;;;10.50;10.20;;;35.20;99.90;;;;;;6201676;23;20282;-79
2023/09/08 14:11:12;;;;;;;10.50;10.20;;;34.90;99.90;;;;;;6200914;23;20203;-80
2023/09/08 14:13:39;;;;;;;10.50;10.20;;;35.10;99.90;;;;;;6202488;23;20206;-80
2023/09/08 14:16:06;;;;;;;10.82;10.52;;;35.40;99.90;;;;;;6201653;23;20200;-80
2023/09/08 14:18:34;;;;;;;10.93;10.63;;;35.70;99.90;;;;;;6202223;23;20246;-79
2023/09/08 14:21:02;;;;;;;10.77;10.48;;;35.90;99.90;;;;;;6200955;23;20234;-80
2023/09/08 14:23:30;;;;;;;10.80;10.50;;;35.30;99.90;;;;;;6197810;23;20207;-79
2023/09/08 14:25:59;;;;;;;10.75;10.45;;;34.80;99.90;;;;;;6200669;23;20199;-80
2023/09/08 14:28:26;;;;;;;10.48;10.18;;;34.60;99.90;;;;;;6202088;23;20199;-80
2023/09/08 14:30:54;;;;;;;10.52;10.23;;;34.60;99.90;;;;;;6200221;23;20206;-80
2023/09/08 14:33:22;;;;;;;10.48;10.18;;;34.70;99.90;;;;;;6200047;23;20195;-79
2023/09/08 14:35:51;;;;;;;10.32;10.02;;;35.00;99.90;;;;;;6201070;23;20220;-79
2023/09/08 14:38:19;;;;;;;10.50;10.20;;;35.40;99.90;;;;;;6199603;23;20195;-78
2023/09/08 14:40:46;;;;;;;10.50;10.20;;;35.80;99.90;;;;;;6199639;23;20274;-79
2023/09/08 14:43:15;;;;;;;10.23;9.93;;;36.10;99.90;;;;;;6198252;23;20243;-79
2023/09/08 14:45:42;;;;;;;10.20;9.90;;;36.10;99.90;;;;;;6199761;23;20223;-78
2023/09/08 14:48:09;;;;;;;10.55;10.25;;;36.10;99.90;;;;;;6196866;23;20235;-79
2023/09/08 14:50:36;;;;;;;10.45;10.15;;;35.80;99.90;;;;;;6197329;23;20200;-79
2023/09/08 14:53:03;;;;;;;10.50;10.20;;;35.70;99.90;;;;;;6198714;23;20223;-80
2023/09/08 14:55:30;;;;;;;10.60;10.30;;;35.50;99.90;;;;;;6198444;23;20224;-79
2023/09/08 14:57:57;;;;;;;10.68;10.38;;;35.50;99.90;;;;;;6197585;23;20202;-79
2023/09/08 15:00:26;;;;;;;11.02;10.73;;;35.20;99.90;;;;;;6196986;23;20222;-78
2023/09/08 15:02:53;;;;;;;10.98;10.68;;;34.70;99.90;;;;;;6197203;23;20200;-79
2023/09/08 15:05:20;;;;;;;10.90;10.60;;;34.40;99.90;;;;;;6198406;23;20270;-79
2023/09/08 15:07:48;;;;;;;10.73;10.43;;;34.20;99.90;;;;;;6197511;23;20191;-79
2023/09/08 15:10:15;;;;;;;10.70;10.40;;;34.20;99.90;;;;;;6198818;23;20286;-78
2023/09/08 15:12:42;;;;;;;10.63;10.32;;;34.50;99.90;;;;;;6198196;23;20205;-79
2023/09/08 15:15:10;;;;;;;10.60;10.30;;;35.00;99.90;;;;;;6199040;23;20203;-80
2023/09/08 15:17:39;;;;;;;10.77;10.48;;;35.40;99.90;;;;;;6200718;23;20219;-79
2023/09/08 15:20:09;;;;;;;10.60;10.30;;;36.00;99.90;;;;;;6201858;23;20192;-79
2023/09/08 15:22:36;;;;;;;10.57;10.27;;;36.00;99.90;;;;;;6201968;23;20214;-79
2023/09/08 15:25:03;;;;;;;10.73;10.43;;;36.00;99.90;;;;;;6201066;23;20263;-80
2023/09/08 15:27:30;;;;;;;10.18;9.88;;;36.20;99.90;;;;;;6200363;23;20211;-79
2023/09/08 15:29:57;;;;;;;10.40;10.10;;;36.10;99.90;;;;;;6201550;23;20188;-80
2023/09/08 15:32:24;;;;;;;10.70;10.40;;;36.00;99.90;;;;;;6200879;23;20283;-80
2023/09/08 15:34:54;;;;;;;10.27;9.98;;;36.10;99.90;;;;;;6201586;23;20199;-80
2023/09/08 15:37:21;;;;;;;10.35;10.05;;;36.20;99.90;;;;;;6202754;23;20254;-81
2023/09/08 15:39:48;;;;;;;10.13;9.82;;;36.20;99.90;;;;;;6202546;23;21093;-81
2023/09/08 15:42:15;;;;;;;10.38;10.07;;;36.40;99.90;;;;;;6202578;23;20270;-80
2023/09/08 15:44:42;;;;;;;10.40;10.10;;;36.40;99.90;;;;;;6203211;23;20219;-80
2023/09/08 15:47:10;;;;;;;10.32;10.02;;;36.50;99.90;;;;;;6203287;23;20203;-80
2023/09/08 15:49:37;;;;;;;10.25;9.95;;;36.80;99.90;;;;;;6203613;23;20222;-80
2023/09/08 15:52:06;;;;;;;10.65;10.35;;;36.90;99.90;;;;;;6202124;23;20218;-79
2023/09/08 15:54:33;;;;;;;10.50;10.20;;;37.10;99.90;;;;;;6202300;23;20271;-81
2023/09/08 15:57:00;;;;;;;10.70;10.40;;;37.10;99.90;;;;;;6203337;23;20219;-79
2023/09/08 15:59:27;;;;;;;10.77;10.48;;;37.10;99.90;;;;;;6200867;23;20215;-80
2023/09/08 16:01:54;;;;;;;10.73;10.43;;;36.90;99.90;;;;;;6201345;23;20290;-79
2023/09/08 16:04:21;;;;;;;10.57;10.27;;;36.80;99.90;;;;;;6203163;23;20279;-79
2023/09/08 16:06:49;;;;;;;10.60;10.30;;;36.70;99.90;;;;;;6203578;23;20203;-79
2023/09/08 16:09:18;;;;;;;10.40;10.10;;;36.60;99.90;;;;;;6201244;23;20281;-79
2023/09/08 16:11:47;;;;;;;10.57;10.27;;;36.60;99.90;;;;;;6201003;23;20207;-79
2023/09/08 16:14:14;;;;;;;10.45;10.15;;;36.50;99.90;;;;;;6200838;23;20204;-79
2023/09/08 16:16:41;;;;;;;10.57;10.27;;;36.40;99.90;;;;;;6201295;23;20207;-80
2023/09/08 16:19:08;;;;;;;10.85;10.55;;;36.60;99.90;;;;;;6202094;23;20216;-79
2023/09/08 16:21:35;;;;;;;10.60;10.30;;;36.40;99.90;;;;;;6200107;23;20207;-78
2023/09/08 16:24:02;;;;;;;10.75;10.45;;;35.90;99.90;;;;;;6197732;23;20196;-79
2023/09/08 16:26:31;;;;;;;10.93;10.63;;;35.10;99.90;;;;;;6201956;23;20188;-78
2023/09/08 16:28:58;;;;;;;10.68;10.38;;;35.00;99.90;;;;;;6201177;23;20206;-79
2023/09/08 16:31:25;;;;;;;10.88;10.57;;;34.50;99.90;;;;;;6199585;23;20199;-79
2023/09/08 16:33:52;;;;;;;10.90;10.60;;;34.20;99.90;;;;;;6200946;23;20226;-79
2023/09/08 16:36:19;;;;;;;10.98;10.68;;;34.20;99.90;;;;;;6201266;23;20204;-79
2023/09/08 16:38:46;;;;;;;10.60;10.30;;;34.20;99.90;;;;;;6201985;23;20294;-79
2023/09/08 16:41:13;;;;;;;10.60;10.30;;;34.40;99.90;;;;;;6202954;23;20243;-78
2023/09/08 16:43:41;;;;;;;10.70;10.40;;;34.60;99.90;;;;;;6201148;23;20226;-80
2023/09/08 16:46:08;;;;;;;10.30;10.00;;;34.20;99.90;;;;;;6199272;23;20247;-79
2023/09/08 16:48:35;;;;;;;10.20;9.90;;;33.50;99.90;;;;;;6197708;23;20203;-79
2023/09/08 16:51:03;;;;;;;10.40;10.10;;;33.10;99.90;;;;;;6202006;23;20211;-79
2023/09/08 16:53:30;;;;;;;10.40;10.10;;;32.70;99.90;;;;;;6201315;23;20203;-79
2023/09/08 16:55:57;;;;;;;10.30;10.00;;;32.40;99.90;;;;;;6197407;23;20199;-78
2023/09/08 16:58:24;;;;;;;10.80;10.50;;;32.20;99.90;;;;;;6190792;23;20223;-76
2023/09/08 17:00:53;;;;;;;11.10;10.80;;;31.80;99.90;;;;;;6190051;23;20302;-78
2023/09/08 17:03:20;;;;;;;11.05;10.75;;;31.30;99.90;;;;;;6190606;23;20195;-77
2023/09/08 17:05:47;;;;;;;10.85;10.55;;;31.00;99.90;;;;;;6189961;23;20203;-77
2023/09/08 17:08:14;;;;;;;10.82;10.52;;;30.60;99.90;;;;;;6190162;23;20234;-77
2023/09/08 17:10:40;;;;;;;10.68;10.38;;;30.30;99.90;;;;;;6190896;23;20191;-78